createdAt,value
2018-09-17T00:01:27.783Z,1.23
2018-09-17T00:03:55.975Z,1.10
2018-09-17T00:06:24.167Z,1.17
2018-09-17T00:08:52.328Z,0.97
2018-09-17T00:11:20.533Z,1.37
2018-09-17T00:13:49.178Z,1.20
2018-09-17T00:18:52.016Z,1.40
2018-09-17T00:21:20.205Z,1.10
2018-09-17T00:23:48.415Z,1.03
2018-09-17T00:26:16.677Z,1.20
2018-09-17T00:28:44.827Z,1.13
2018-09-17T00:31:12.994Z,1.10
2018-09-17T00:33:41.171Z,1.17
2018-09-17T00:36:09.348Z,1.27
2018-09-17T00:38:37.574Z,1.40
2018-09-17T00:41:05.760Z,1.00
2018-09-17T00:43:33.938Z,1.20
2018-09-17T00:46:02.119Z,1.17
2018-09-17T00:48:30.310Z,1.30
2018-09-17T00:50:58.464Z,1.50
2018-09-17T00:53:26.702Z,1.20
2018-09-17T00:55:54.903Z,1.10
2018-09-17T00:58:23.109Z,1.40
2018-09-17T01:00:51.404Z,1.27
2018-09-17T01:03:19.584Z,1.10
2018-09-17T01:05:47.773Z,1.23
2018-09-17T01:08:15.932Z,1.20
2018-09-17T01:10:45.112Z,1.00
2018-09-17T01:13:13.510Z,1.50
2018-09-17T01:15:44.297Z,1.10
2018-09-17T01:18:12.493Z,1.00
2018-09-17T01:20:40.684Z,1.27
2018-09-17T01:23:08.871Z,1.10
2018-09-17T01:25:37.089Z,1.40
2018-09-17T01:28:05.267Z,1.40
2018-09-17T01:30:33.534Z,1.70
2018-09-17T01:33:01.623Z,1.00
2018-09-17T01:35:36.690Z,1.40
2018-09-17T01:38:04.852Z,1.60
2018-09-17T01:40:33.051Z,1.43
2018-09-17T01:43:01.275Z,1.30
2018-09-17T01:45:29.441Z,1.67
2018-09-17T01:47:57.620Z,1.37
2018-09-17T01:50:25.771Z,1.30
2018-09-17T01:52:53.951Z,1.50
2018-09-17T01:55:22.845Z,1.40
2018-09-17T01:57:51.029Z,1.43
2018-09-17T02:00:19.245Z,1.20
2018-09-17T02:02:47.391Z,1.20
2018-09-17T02:05:15.532Z,1.50
2018-09-17T02:07:43.759Z,1.37
2018-09-17T02:10:11.948Z,1.27
2018-09-17T02:12:40.176Z,1.40
2018-09-17T02:15:08.967Z,1.30
2018-09-17T02:17:37.172Z,1.47
2018-09-17T02:20:05.355Z,1.37
2018-09-17T02:22:33.598Z,1.50
2018-09-17T02:25:01.752Z,1.30
2018-09-17T02:27:29.918Z,1.50
2018-09-17T02:29:58.115Z,1.40
2018-09-17T02:32:26.272Z,1.27
2018-09-17T02:34:54.506Z,1.60
2018-09-17T02:37:22.706Z,1.57
2018-09-17T02:39:50.916Z,1.90
2018-09-17T02:42:19.093Z,1.17
2018-09-17T02:44:47.290Z,1.43
2018-09-17T02:47:15.467Z,1.20
2018-09-17T02:49:43.728Z,1.50
2018-09-17T02:52:11.938Z,1.50
2018-09-17T02:54:40.141Z,1.43
2018-09-17T02:57:08.339Z,1.53
2018-09-17T02:59:36.974Z,1.63
2018-09-17T03:02:05.178Z,1.43
2018-09-17T03:04:33.366Z,1.57
2018-09-17T03:07:01.553Z,1.23
2018-09-17T03:09:29.741Z,1.60
2018-09-17T03:11:57.984Z,1.50
2018-09-17T03:14:28.911Z,1.57
2018-09-17T03:17:09.523Z,1.40
2018-09-17T03:19:37.682Z,1.23
2018-09-17T03:22:05.897Z,1.60
2018-09-17T03:24:34.218Z,1.50
2018-09-17T03:27:02.307Z,2.00
2018-09-17T03:29:31.771Z,1.57
2018-09-17T03:31:59.964Z,1.50
2018-09-17T03:34:28.454Z,1.33
2018-09-17T03:36:57.505Z,1.87
2018-09-17T03:39:25.679Z,1.50
2018-09-17T03:41:53.895Z,1.60
2018-09-17T03:44:22.120Z,1.20
2018-09-17T03:46:50.370Z,1.90
2018-09-17T03:49:18.519Z,1.40
2018-09-17T03:51:46.711Z,1.20
2018-09-17T03:54:14.880Z,1.73
2018-09-17T03:56:43.101Z,1.70
2018-09-17T03:59:11.377Z,1.60
2018-09-17T04:01:39.592Z,1.50
2018-09-17T04:04:07.844Z,1.40
2018-09-17T04:06:36.068Z,1.40
2018-09-17T04:09:06.634Z,1.67
2018-09-17T04:11:34.809Z,1.50
2018-09-17T04:14:03.030Z,1.43
2018-09-17T04:16:31.216Z,1.47
2018-09-17T04:18:59.398Z,1.80
2018-09-17T04:21:27.585Z,1.50
2018-09-17T04:23:55.815Z,1.97
2018-09-17T04:26:24.011Z,1.40
2018-09-17T04:28:52.246Z,1.40
2018-09-17T04:31:20.465Z,1.67
2018-09-17T04:33:50.225Z,1.70
2018-09-17T04:36:18.440Z,1.67
2018-09-17T04:38:46.663Z,1.70
2018-09-17T04:41:14.867Z,1.60
2018-09-17T04:43:43.167Z,1.50
2018-09-17T04:46:11.316Z,1.70
2018-09-17T04:48:39.509Z,1.67
2018-09-17T04:51:07.661Z,1.70
2018-09-17T04:53:35.819Z,1.77
2018-09-17T04:56:04.034Z,1.73
2018-09-17T04:58:32.224Z,1.90
2018-09-17T05:01:00.472Z,1.50
2018-09-17T05:03:28.688Z,1.30
2018-09-17T05:05:56.850Z,1.33
2018-09-17T05:08:25.035Z,1.70
2018-09-17T05:10:53.219Z,1.47
2018-09-17T05:13:21.650Z,1.90
2018-09-17T05:15:49.838Z,1.90
2018-09-17T05:18:18.041Z,1.50
2018-09-17T05:20:46.250Z,1.80
2018-09-17T05:23:14.448Z,1.73
2018-09-17T05:25:42.626Z,2.10
2018-09-17T05:28:10.787Z,2.13
2018-09-17T05:30:39.012Z,1.87
2018-09-17T05:33:07.350Z,1.97
2018-09-17T05:35:35.543Z,1.60
2018-09-17T05:38:03.722Z,1.53
2018-09-17T05:40:31.884Z,1.40
2018-09-17T05:43:00.101Z,1.73
2018-09-17T05:45:28.275Z,1.77
2018-09-17T05:47:56.472Z,1.80
2018-09-17T05:50:24.669Z,1.40
2018-09-17T05:52:52.843Z,1.73
2018-09-17T05:55:21.015Z,1.77
2018-09-17T05:57:49.264Z,1.50
2018-09-17T06:00:17.455Z,1.80
2018-09-17T06:02:45.705Z,1.70
2018-09-17T06:05:13.924Z,1.37
2018-09-17T06:07:42.156Z,1.77
2018-09-17T06:10:15.591Z,2.00
2018-09-17T06:12:45.612Z,1.63
2018-09-17T06:15:13.971Z,1.87
2018-09-17T06:17:42.178Z,1.70
2018-09-17T06:20:10.464Z,1.83
2018-09-17T06:22:38.656Z,1.73
2018-09-17T06:25:06.861Z,1.80
2018-09-17T06:27:35.076Z,1.70
2018-09-17T06:30:03.297Z,2.00
2018-09-17T06:32:31.484Z,1.80
2018-09-17T06:34:59.631Z,1.90
2018-09-17T06:37:27.818Z,1.83
2018-09-17T06:39:56.010Z,2.10
2018-09-17T06:42:24.168Z,1.93
2018-09-17T06:44:52.461Z,2.17
2018-09-17T06:47:20.592Z,2.10
2018-09-17T06:49:49.030Z,1.97
2018-09-17T06:52:17.189Z,1.63
2018-09-17T06:54:45.380Z,1.80
2018-09-17T06:57:13.571Z,1.80
2018-09-17T06:59:41.858Z,1.83
2018-09-17T07:02:10.044Z,1.83
2018-09-17T07:04:38.217Z,2.03
2018-09-17T07:07:06.405Z,2.00
2018-09-17T07:09:34.667Z,2.00
2018-09-17T07:12:02.912Z,1.60
2018-09-17T07:14:31.102Z,1.93
2018-09-17T07:16:59.278Z,1.73
2018-09-17T07:19:27.480Z,1.80
2018-09-17T07:21:55.711Z,1.80
2018-09-17T07:24:23.883Z,1.70
2018-09-17T07:26:52.106Z,1.80
2018-09-17T07:29:21.183Z,2.13
2018-09-17T07:31:49.488Z,1.60
2018-09-17T07:34:17.663Z,1.70
2018-09-17T07:36:45.892Z,1.97
2018-09-17T07:39:14.075Z,2.00
2018-09-17T07:41:42.248Z,1.83
2018-09-17T07:44:10.445Z,1.77
2018-09-17T07:46:38.632Z,1.57
2018-09-17T07:49:06.861Z,1.70
2018-09-17T07:51:35.057Z,1.60
2018-09-17T07:54:03.252Z,1.93
2018-09-17T07:56:31.463Z,1.80
2018-09-17T07:58:59.759Z,1.90
2018-09-17T08:01:27.863Z,1.47
2018-09-17T08:03:56.019Z,1.80
2018-09-17T08:06:24.220Z,1.90
2018-09-17T08:08:52.433Z,1.17
2018-09-17T08:11:20.754Z,1.43
2018-09-17T08:13:49.113Z,1.30
2018-09-17T08:16:17.264Z,1.73
2018-09-17T08:18:45.425Z,1.37
2018-09-17T08:21:13.593Z,1.50
2018-09-17T08:23:41.768Z,1.50
2018-09-17T08:26:09.964Z,1.30
2018-09-17T08:28:38.200Z,1.50
2018-09-17T08:31:06.574Z,1.40
2018-09-17T08:33:34.787Z,1.70
2018-09-17T08:36:03.018Z,1.57
2018-09-17T08:38:31.217Z,1.43
2018-09-17T08:40:59.381Z,1.30
2018-09-17T08:43:27.561Z,1.53
2018-09-17T08:45:55.758Z,1.50
2018-09-17T08:48:23.936Z,1.60
2018-09-17T08:50:52.130Z,1.60
2018-09-17T08:53:20.320Z,1.70
2018-09-17T08:55:53.853Z,1.40
2018-09-17T08:58:24.216Z,1.63
2018-09-17T09:01:07.795Z,1.40
2018-09-17T09:03:39.379Z,1.90
2018-09-17T09:06:12.917Z,1.30
2018-09-17T09:08:41.078Z,1.07
2018-09-17T09:11:14.728Z,1.50
2018-09-17T09:14:50.140Z,1.30
2018-09-17T09:17:19.166Z,1.80
2018-09-17T09:19:47.389Z,1.47
2018-09-17T09:22:23.117Z,1.50
2018-09-17T09:24:51.329Z,1.20
2018-09-17T09:27:19.588Z,1.30
2018-09-17T09:29:47.935Z,1.20
2018-09-17T09:32:16.117Z,1.37
2018-09-17T09:34:44.298Z,1.40
2018-09-17T09:37:12.534Z,1.30
2018-09-17T09:39:40.716Z,1.60
2018-09-17T09:42:08.920Z,1.10
2018-09-17T09:44:37.177Z,1.97
2018-09-17T09:47:05.456Z,1.40
2018-09-17T09:49:33.674Z,1.27
2018-09-17T09:52:01.861Z,1.40
2018-09-17T09:54:30.021Z,1.20
2018-09-17T09:56:58.240Z,1.10
2018-09-17T09:59:27.890Z,1.20
2018-09-17T10:02:01.637Z,1.40
2018-09-17T10:04:29.781Z,1.30
2018-09-17T10:06:57.962Z,1.23
2018-09-17T10:09:31.644Z,1.30
2018-09-17T10:12:05.333Z,1.30
2018-09-17T10:14:45.603Z,1.00
2018-09-17T10:17:19.161Z,1.10
2018-09-17T10:19:51.493Z,1.10
2018-09-17T10:22:20.390Z,1.00
2018-09-17T10:24:48.608Z,1.10
2018-09-17T10:27:17.652Z,1.20
2018-09-17T10:29:45.960Z,0.97
2018-09-17T10:32:14.336Z,1.00
2018-09-17T10:34:42.767Z,1.10
2018-09-17T10:37:11.367Z,1.30
2018-09-17T10:39:39.674Z,1.30
2018-09-17T10:42:07.889Z,1.10
2018-09-17T10:44:36.089Z,1.00
2018-09-17T10:47:04.350Z,1.03
2018-09-17T10:49:32.442Z,1.10
2018-09-17T10:52:00.689Z,1.23
2018-09-17T10:54:28.861Z,0.97
2018-09-17T10:56:57.023Z,1.00
2018-09-17T10:59:26.492Z,1.07
2018-09-17T11:01:54.747Z,1.20
2018-09-17T11:04:22.911Z,1.10
2018-09-17T11:06:51.052Z,1.10
2018-09-17T11:09:19.295Z,1.00
2018-09-17T11:11:47.530Z,1.20
2018-09-17T11:14:15.674Z,1.00
2018-09-17T11:16:43.883Z,1.10
2018-09-17T11:19:12.113Z,1.00
2018-09-17T11:21:40.307Z,0.80
2018-09-17T11:24:08.475Z,1.00
2018-09-17T11:26:36.670Z,0.93
2018-09-17T11:29:04.954Z,0.90
2018-09-17T11:31:33.231Z,1.30
2018-09-17T11:34:01.401Z,0.80
2018-09-17T11:36:29.631Z,0.77
2018-09-17T11:38:57.912Z,0.80
2018-09-17T11:41:26.085Z,0.87
2018-09-17T11:43:54.289Z,0.80
2018-09-17T11:46:22.497Z,1.10
2018-09-17T11:48:50.664Z,0.97
2018-09-17T11:51:18.924Z,0.87
2018-09-17T11:53:47.129Z,0.90
2018-09-17T11:56:15.282Z,1.00
2018-09-17T11:58:43.449Z,1.00
2018-09-17T12:02:20.037Z,1.17
2018-09-17T12:04:53.635Z,0.70
2018-09-17T12:07:27.375Z,1.00
2018-09-17T12:09:55.579Z,0.90
2018-09-17T12:12:23.759Z,1.20
2018-09-17T12:14:51.972Z,0.80
2018-09-17T12:17:20.172Z,0.90
2018-09-17T12:19:48.380Z,1.10
2018-09-17T12:22:16.571Z,0.90
2018-09-17T12:24:44.763Z,1.10
2018-09-17T12:27:12.961Z,1.30
2018-09-17T12:29:41.401Z,1.20
2018-09-17T12:32:09.596Z,0.87
2018-09-17T12:34:37.747Z,1.30
2018-09-17T12:37:05.988Z,0.93
2018-09-17T12:39:34.164Z,1.23
2018-09-17T12:42:02.339Z,1.00
2018-09-17T12:44:30.576Z,1.03
2018-09-17T12:46:58.820Z,1.00
2018-09-17T12:49:27.121Z,1.00
2018-09-17T12:51:55.328Z,2.03
2018-09-17T12:54:23.573Z,1.17
2018-09-17T12:56:51.788Z,1.30
2018-09-17T12:59:20.875Z,0.93
2018-09-17T13:01:55.820Z,1.20
2018-09-17T13:04:23.993Z,1.60
2018-09-17T13:06:52.203Z,1.03
2018-09-17T13:09:20.383Z,1.10
2018-09-17T13:11:48.566Z,0.97
2018-09-17T13:14:16.826Z,1.30
2018-09-17T13:16:45.055Z,1.10
2018-09-17T13:19:13.220Z,0.90
2018-09-17T13:21:41.438Z,0.80
2018-09-17T13:24:09.609Z,1.10
2018-09-17T13:26:38.470Z,1.03
2018-09-17T13:29:06.736Z,1.07
2018-09-17T13:31:35.233Z,1.27
2018-09-17T13:34:03.440Z,1.30
2018-09-17T13:36:31.661Z,1.20
2018-09-17T13:38:59.819Z,1.07
2018-09-17T13:41:27.969Z,1.30
2018-09-17T13:43:56.226Z,1.10
2018-09-17T13:46:24.404Z,1.03
2018-09-17T13:48:52.637Z,1.00
2018-09-17T13:51:20.815Z,1.13
2018-09-17T13:53:49.027Z,1.00
2018-09-17T13:56:17.222Z,1.10
2018-09-17T13:58:45.394Z,1.00
2018-09-17T14:01:13.575Z,0.97
2018-09-17T14:03:41.807Z,1.20
2018-09-17T14:06:10.040Z,1.07
2018-09-17T14:08:38.245Z,0.80
2018-09-17T14:11:06.457Z,1.17
2018-09-17T14:13:34.657Z,0.90
2018-09-17T14:16:06.338Z,1.30
2018-09-17T14:18:34.579Z,0.80
2018-09-17T14:21:02.749Z,1.20
2018-09-17T14:23:30.937Z,0.90
2018-09-17T14:25:59.149Z,0.90
2018-09-17T14:28:27.395Z,0.97
2018-09-17T14:30:55.607Z,1.03
2018-09-17T14:33:29.331Z,1.10
2018-09-17T14:35:57.572Z,1.00
2018-09-17T14:38:25.851Z,0.97
2018-09-17T14:40:54.113Z,1.10
2018-09-17T14:43:22.290Z,1.00
2018-09-17T14:45:50.491Z,1.00
2018-09-17T14:48:18.700Z,0.97
2018-09-17T14:50:46.896Z,1.03
2018-09-17T14:53:15.128Z,1.00
2018-09-17T14:55:43.344Z,1.00
2018-09-17T14:58:12.074Z,1.00
2018-09-17T15:00:40.316Z,0.97
2018-09-17T15:03:08.580Z,1.07
2018-09-17T15:05:36.777Z,1.10
2018-09-17T15:08:05.361Z,0.93
2018-09-17T15:10:33.420Z,0.97
2018-09-17T15:13:01.631Z,1.00
2018-09-17T15:15:29.913Z,1.10
2018-09-17T15:17:58.039Z,1.43
2018-09-17T15:20:26.305Z,1.07
2018-09-17T15:22:54.537Z,1.03
2018-09-17T15:25:22.795Z,1.00
2018-09-17T15:27:50.960Z,1.00
2018-09-17T15:30:19.175Z,0.90
2018-09-17T15:32:47.390Z,1.20
2018-09-17T15:35:15.584Z,0.97
2018-09-17T15:37:43.791Z,1.17
2018-09-17T15:40:12.046Z,1.00
2018-09-17T15:42:40.345Z,0.83
2018-09-17T15:45:08.535Z,1.37
2018-09-17T15:47:36.745Z,1.03
2018-09-17T15:50:05.028Z,1.10
2018-09-17T15:52:33.240Z,1.20
2018-09-17T15:55:01.491Z,1.07
2018-09-17T15:57:29.678Z,0.90
2018-09-17T15:59:57.879Z,1.07
2018-09-17T16:02:26.091Z,1.10
2018-09-17T16:04:54.316Z,1.30
2018-09-17T16:07:22.614Z,1.20
2018-09-17T16:09:50.769Z,1.20
2018-09-17T16:12:18.956Z,1.30
2018-09-17T16:14:47.180Z,1.40
2018-09-17T16:17:15.365Z,0.97
2018-09-17T16:19:43.525Z,1.37
2018-09-17T16:22:11.790Z,1.40
2018-09-17T16:24:39.991Z,1.10
2018-09-17T16:27:08.290Z,1.47
2018-09-17T16:29:37.911Z,1.17
2018-09-17T16:32:06.118Z,1.23
2018-09-17T16:34:34.337Z,1.20
2018-09-17T16:37:02.546Z,1.10
2018-09-17T16:39:30.786Z,1.30
2018-09-17T16:41:58.983Z,1.20
2018-09-17T16:44:27.171Z,1.40
2018-09-17T16:46:55.481Z,0.70
2018-09-17T16:49:23.611Z,1.10
2018-09-17T16:51:51.931Z,1.30
2018-09-17T16:54:20.143Z,1.47
2018-09-17T16:56:48.405Z,1.27
2018-09-17T16:59:17.567Z,1.20
2018-09-17T17:01:48.628Z,1.50
2018-09-17T17:04:16.936Z,1.17
2018-09-17T17:06:45.254Z,1.20
2018-09-17T17:09:13.429Z,1.20
2018-09-17T17:11:41.672Z,1.10
2018-09-17T17:14:09.842Z,1.10
2018-09-17T17:16:38.053Z,1.40
2018-09-17T17:19:06.382Z,1.50
2018-09-17T17:21:34.524Z,1.37
2018-09-17T17:24:02.713Z,1.20
2018-09-17T17:26:30.887Z,1.20
2018-09-17T17:28:59.161Z,1.00
2018-09-17T17:31:27.356Z,1.10
2018-09-17T17:33:55.569Z,1.20
2018-09-17T17:36:23.740Z,1.00
2018-09-17T17:38:51.969Z,1.57
2018-09-17T17:41:20.141Z,1.00
2018-09-17T17:43:48.348Z,0.97
2018-09-17T17:46:16.614Z,1.13
2018-09-17T17:48:44.704Z,0.90
2018-09-17T17:51:12.893Z,1.20
2018-09-17T17:53:41.058Z,0.93
2018-09-17T17:56:09.243Z,1.00
2018-09-17T17:58:38.290Z,0.97
2018-09-17T18:01:06.698Z,0.97
2018-09-17T18:03:34.779Z,1.10
2018-09-17T18:06:02.987Z,1.27
2018-09-17T18:08:31.181Z,1.10
2018-09-17T18:10:59.363Z,1.13
2018-09-17T18:13:27.540Z,1.50
2018-09-17T18:15:55.709Z,1.20
2018-09-17T18:18:23.863Z,1.10
2018-09-17T18:20:52.184Z,0.93
2018-09-17T18:23:20.319Z,1.10
2018-09-17T18:25:48.542Z,1.10
2018-09-17T18:28:16.695Z,1.20
2018-09-17T18:30:44.989Z,1.23
2018-09-17T18:33:13.255Z,1.17
2018-09-17T18:35:41.371Z,1.10
2018-09-17T18:38:09.544Z,1.63
2018-09-17T18:40:37.794Z,1.03
2018-09-17T18:43:05.997Z,1.10
2018-09-17T18:45:34.210Z,1.20
2018-09-17T18:48:02.432Z,1.20
2018-09-17T18:50:30.598Z,1.07
2018-09-17T18:52:58.835Z,1.07
2018-09-17T18:55:27.020Z,1.00
2018-09-17T18:57:55.246Z,1.10
2018-09-17T19:00:23.503Z,1.10
2018-09-17T19:02:51.775Z,1.20
2018-09-17T19:05:20.016Z,1.20
2018-09-17T19:07:48.302Z,1.17
2018-09-17T19:10:16.536Z,1.27
2018-09-17T19:12:44.945Z,1.20
2018-09-17T19:15:18.530Z,1.40
2018-09-17T19:17:46.724Z,1.40
2018-09-17T19:20:15.113Z,1.77
2018-09-17T19:22:48.869Z,1.20
2018-09-17T19:25:17.059Z,1.03
2018-09-17T19:27:50.472Z,1.50
2018-09-17T19:30:18.791Z,1.10
2018-09-17T19:32:46.976Z,1.10
2018-09-17T19:35:15.442Z,1.40
2018-09-17T19:37:49.049Z,1.00
2018-09-17T19:40:20.803Z,1.37
2018-09-17T19:42:49.516Z,1.43
2018-09-17T19:45:23.131Z,1.20
2018-09-17T19:47:52.145Z,1.10
2018-09-17T19:50:25.856Z,1.30
2018-09-17T19:52:54.038Z,1.40
2018-09-17T19:55:24.397Z,1.70
2018-09-17T19:57:58.018Z,1.43
2018-09-17T20:00:26.253Z,1.10
2018-09-17T20:02:54.460Z,1.23
2018-09-17T20:05:28.329Z,1.20
2018-09-17T20:07:56.541Z,1.33
2018-09-17T20:10:24.710Z,1.37
2018-09-17T20:12:52.879Z,1.50
2018-09-17T20:15:21.125Z,1.10
2018-09-17T20:17:49.378Z,1.50
2018-09-17T20:20:17.613Z,1.20
2018-09-17T20:22:45.847Z,1.50
2018-09-17T20:25:17.061Z,1.40
2018-09-17T20:27:45.248Z,1.33
2018-09-17T20:30:13.409Z,1.40
2018-09-17T20:32:41.629Z,1.63
2018-09-17T20:35:09.934Z,1.50
2018-09-17T20:37:48.782Z,1.50
2018-09-17T20:43:39.760Z,1.20
2018-09-17T20:46:08.068Z,1.37
2018-09-17T20:48:36.347Z,1.70
2018-09-17T20:51:05.639Z,1.43
2018-09-17T20:53:33.916Z,1.40
2018-09-17T20:56:02.152Z,1.30
2018-09-17T20:58:30.349Z,1.40
2018-09-17T21:00:58.669Z,1.20
2018-09-17T21:03:26.710Z,1.57
2018-09-17T21:05:54.908Z,1.40
2018-09-17T21:08:23.117Z,1.40
2018-09-17T21:10:51.313Z,1.23
2018-09-17T21:13:20.294Z,1.40
2018-09-17T21:15:48.498Z,1.40
2018-09-17T21:18:16.685Z,1.37
2018-09-17T21:20:44.904Z,1.60
2018-09-17T21:23:13.111Z,1.60
2018-09-17T21:25:41.308Z,1.40
2018-09-17T21:28:09.480Z,1.40
2018-09-17T21:30:37.706Z,1.87
2018-09-17T21:33:05.932Z,1.50
2018-09-17T21:35:34.100Z,1.40
2018-09-17T21:38:02.303Z,1.37
2018-09-17T21:40:30.496Z,1.70
2018-09-17T21:42:58.680Z,1.73
2018-09-17T21:45:26.850Z,1.30
2018-09-17T21:47:55.071Z,1.60
2018-09-17T21:50:23.299Z,1.90
2018-09-17T21:52:51.567Z,1.73
2018-09-17T21:55:31.813Z,1.67
2018-09-17T21:58:00.027Z,1.37
2018-09-17T22:00:32.482Z,1.30
2018-09-17T22:03:00.673Z,1.33
2018-09-17T22:05:30.139Z,1.43
2018-09-17T22:07:58.315Z,1.50
2018-09-17T22:10:26.470Z,1.47
2018-09-17T22:12:54.632Z,1.60
2018-09-17T22:15:24.603Z,1.60
2018-09-17T22:17:52.864Z,1.53
2018-09-17T22:20:21.040Z,1.90
2018-09-17T22:22:49.249Z,1.60
2018-09-17T22:25:21.711Z,1.43
2018-09-17T22:27:49.971Z,1.60
2018-09-17T22:30:18.151Z,1.10
2018-09-17T22:32:46.351Z,1.60
2018-09-17T22:35:14.549Z,1.40
2018-09-17T22:37:42.756Z,1.57
2018-09-17T22:40:10.948Z,1.50
2018-09-17T22:42:39.397Z,1.57
2018-09-17T22:45:07.601Z,1.70
2018-09-17T22:47:35.961Z,1.70
2018-09-17T22:50:04.224Z,1.50
2018-09-17T22:52:32.461Z,1.37
2018-09-17T22:55:00.612Z,1.50
2018-09-17T22:57:29.616Z,1.70
2018-09-17T22:59:58.066Z,1.60
2018-09-17T23:02:26.316Z,1.60
2018-09-17T23:04:54.513Z,1.50
2018-09-17T23:07:25.702Z,1.60
2018-09-17T23:09:54.073Z,1.80
2018-09-17T23:12:22.307Z,1.47
2018-09-17T23:14:50.456Z,1.50
2018-09-17T23:17:18.656Z,1.83
2018-09-17T23:19:46.841Z,1.73
2018-09-17T23:22:15.004Z,1.60
2018-09-17T23:24:43.186Z,1.80
2018-09-17T23:27:11.358Z,1.67
2018-09-17T23:29:46.344Z,1.50
2018-09-17T23:32:14.525Z,1.70
2018-09-17T23:34:42.804Z,2.07
2018-09-17T23:37:10.978Z,1.67
2018-09-17T23:39:39.188Z,1.83
2018-09-17T23:42:07.409Z,1.40
2018-09-17T23:44:35.639Z,1.93
2018-09-17T23:47:03.876Z,1.80
2018-09-17T23:49:32.140Z,1.57
2018-09-17T23:52:00.331Z,1.70
2018-09-17T23:54:28.556Z,1.60
2018-09-17T23:56:56.763Z,1.43
2018-09-17T23:59:31.959Z,1.80
